createdAt,value
2022-11-05T09:28:18.191Z,7.72
2022-11-05T10:31:38.265Z,9.05
2022-11-05T10:32:42.818Z,9.17
2022-11-05T10:51:07.496Z,9.65
2022-11-05T10:52:34.065Z,9.51
2022-11-05T10:53:38.933Z,9.71
2022-11-05T10:54:41.184Z,10.18
2022-11-05T10:55:48.646Z,10.32
2022-11-05T10:56:50.320Z,10.50
2022-11-05T10:57:52.397Z,10.36
2022-11-05T10:58:56.068Z,10.39
2022-11-05T11:00:18.519Z,10.55
2022-11-05T11:01:20.549Z,10.37
2022-11-05T11:02:28.207Z,10.01
2022-11-05T11:09:03.388Z,10.25
2022-11-05T11:10:08.877Z,10.17
2022-11-05T11:11:12.800Z,9.88
2022-11-05T11:30:21.147Z,9.56
2022-11-05T11:31:25.666Z,9.69
2022-11-05T11:32:33.143Z,9.83
2022-11-05T11:39:05.986Z,12.60
2022-11-05T11:40:36.629Z,12.05
2022-11-05T11:41:41.929Z,10.89
2022-11-05T11:42:55.629Z,10.94
2022-11-05T11:44:02.720Z,10.26
2022-11-05T11:58:47.055Z,10.86
2022-11-05T12:00:07.616Z,11.13
2022-11-05T12:01:49.730Z,13.00
2022-11-05T12:03:11.829Z,14.19
2022-11-05T12:04:32.458Z,13.96
2022-11-05T12:05:44.197Z,13.95
2022-11-05T12:06:54.486Z,13.17
2022-11-05T12:08:03.195Z,13.05
2022-11-05T12:09:34.439Z,13.69
2022-11-05T12:10:51.556Z,13.20
2022-11-05T12:12:05.331Z,12.70
2022-11-05T12:13:18.779Z,13.26
2022-11-05T12:14:52.079Z,12.92
2022-11-05T12:16:05.294Z,14.13
2022-11-05T12:17:16.759Z,13.75
2022-11-05T12:18:43.117Z,13.08
2022-11-05T12:20:04.374Z,12.76
2022-11-05T12:21:51.395Z,13.36
2022-11-05T12:23:12.068Z,12.33
2022-11-05T12:24:35.472Z,11.80
2022-11-05T12:25:54.255Z,11.21
2022-11-05T12:27:33.199Z,10.94
2022-11-05T12:29:16.806Z,10.59
2022-11-05T12:30:20.680Z,9.98
2022-11-05T12:31:59.449Z,11.02
2022-11-05T12:39:41.555Z,9.74
2022-11-05T12:41:01.087Z,9.71
2022-11-05T12:42:13.008Z,9.55
2022-11-05T12:43:35.831Z,9.62
2022-11-05T12:44:57.979Z,9.54
2022-11-05T12:46:09.259Z,9.86
2022-11-05T12:47:28.475Z,9.96
2022-11-05T12:48:47.560Z,9.72
2022-11-05T12:50:10.367Z,9.73
2022-11-05T12:51:33.044Z,9.93
2022-11-05T12:53:08.138Z,9.90
2022-11-05T12:54:15.060Z,10.03
2022-11-05T12:55:25.290Z,9.80
2022-11-05T12:56:44.263Z,9.67
2022-11-05T12:57:49.219Z,9.70
2022-11-05T12:59:22.963Z,9.62
2022-11-05T13:00:26.885Z,9.63
2022-11-05T13:01:50.431Z,9.69
2022-11-05T13:08:03.719Z,9.60
2022-11-05T13:09:15.276Z,9.41
2022-11-05T13:10:31.679Z,9.52
2022-11-05T13:11:52.113Z,9.24
2022-11-05T13:13:02.426Z,9.11
2022-11-05T15:21:21.847Z,9.14
2022-11-05T15:22:30.591Z,9.18
2022-11-05T15:23:52.987Z,9.24
2022-11-05T15:24:55.464Z,9.71
2022-11-05T15:26:14.504Z,9.95
2022-11-05T15:27:34.074Z,10.33
2022-11-05T15:28:44.593Z,9.93
2022-11-05T15:29:50.084Z,9.58
2022-11-05T15:30:58.376Z,9.63
2022-11-05T15:31:59.977Z,9.36
2022-11-05T15:36:47.513Z,8.84
2022-11-05T15:37:54.650Z,9.39
2022-11-05T15:39:28.080Z,9.07
2022-11-05T15:40:30.467Z,9.23
